Time;durP1;ratioP1;P1;durP2;ratioP2;P2;SDS_P1;SDS_P2;PMS_P1;PMS_P2;Temp;Humidity;BMP_temperature;BMP_pressure;BME280_temperature;BME280_humidity;BME280_pressure;Samples;Min_cycle;Max_cycle;Signal;HPM_P1;HPM_P2
2019/04/21 00:01:55;;;;;;;22.8;11.6;;;;;;;15.64;40.55469;966.9906;;;;
2019/04/21 00:04:17;;;;;;;16.6;10.8;;;;;;;15.61;40.61035;967.0488;;;;
2019/04/21 00:06:43;;;;;;;20.8;9.6;;;;;;;15.6;40.21777;967.0647;;;;
2019/04/21 00:09:08;;;;;;;14.1;9.5;;;;;;;15.52;40.30566;967.0267;;;;
2019/04/21 00:11:36;;;;;;;13;9;;;;;;;15.4;40.7334;967.0097;;;;
2019/04/21 00:15:38;;;;;;;17.4;9.5;;;;;;;15.21;42.20801;966.9624;;;;
2019/04/21 00:18:16;;;;;;;14.8;9.2;;;;;;;15.11;42.7207;966.9622;;;;
2019/04/21 00:20:28;;;;;;;20.3;9.7;;;;;;;15.23;41.90234;966.9882;;;;
2019/04/21 00:22:53;;;;;;;18.7;9.8;;;;;;;15.04;43.1748;966.9855;;;;
2019/04/21 00:25:18;;;;;;;16.3;9.6;;;;;;;15.07;43.18945;966.9522;;;;
2019/04/21 00:27:46;;;;;;;20;9.6;;;;;;;14.84;44.26758;966.8871;;;;
2019/04/21 00:30:11;;;;;;;15.3;9.7;;;;;;;14.88;43.9873;966.8915;;;;
2019/04/21 00:32:36;;;;;;;14;9.2;;;;;;;14.9;44.27344;966.8889;;;;
2019/04/21 00:35:01;;;;;;;19.4;9.2;;;;;;;14.75;44.5293;966.8383;;;;
2019/04/21 00:37:26;;;;;;;15.8;9.6;;;;;;;14.89;43.98828;966.8549;;;;
2019/04/21 00:39:53;;;;;;;14.9;9.7;;;;;;;14.93;43.80371;966.8478;;;;
2019/04/21 00:42:18;;;;;;;17;9.9;;;;;;;15;43.35938;966.7827;;;;
2019/04/21 00:44:44;;;;;;;15.1;9.8;;;;;;;14.98;43.24023;966.8211;;;;
2019/04/21 00:47:10;;;;;;;18;9.9;;;;;;;14.97;43.06055;966.7452;;;;
2019/04/21 00:49:35;;;;;;;14.9;9;;;;;;;14.96;43.0957;966.7595;;;;
2019/04/21 00:52:11;;;;;;;17.4;9.4;;;;;;;14.94;42.91602;966.7888;;;;
2019/04/21 00:54:25;;;;;;;17.3;9.8;;;;;;;14.9;42.50977;966.7841;;;;
2019/04/21 00:56:50;;;;;;;18.5;10.1;;;;;;;14.77;42.1416;966.7238;;;;
2019/04/21 00:59:15;;;;;;;14.4;9.7;;;;;;;14.71;42.23145;966.7352;;;;
2019/04/21 01:01:40;;;;;;;20.6;9.9;;;;;;;14.75;41.93848;966.698;;;;
2019/04/21 01:04:05;;;;;;;13.5;8.8;;;;;;;14.64;41.4668;966.6967;;;;
2019/04/21 01:06:30;;;;;;;17;8.7;;;;;;;14.65;41.33789;966.6415;;;;
2019/04/21 01:08:56;;;;;;;13.7;9;;;;;;;14.48;41.38086;966.6119;;;;
2019/04/21 01:11:21;;;;;;;18.5;8.8;;;;;;;14.47;41.34375;966.6133;;;;
2019/04/21 01:13:47;;;;;;;16;8.5;;;;;;;14.39;41.20703;966.6117;;;;
2019/04/21 01:16:12;;;;;;;15.2;8.9;;;;;;;14.13;41.6084;966.6622;;;;
2019/04/21 01:18:37;;;;;;;16.3;8.6;;;;;;;13.94;42.12207;966.6613;;;;
2019/04/21 01:21:03;;;;;;;16;9;;;;;;;13.98;42.17188;966.7252;;;;
2019/04/21 01:23:28;;;;;;;16.1;8.3;;;;;;;14.14;41.96289;966.6517;;;;
2019/04/21 01:25:53;;;;;;;14.8;8.9;;;;;;;14.17;41.93066;966.6514;;;;
2019/04/21 01:28:18;;;;;;;15.9;8.7;;;;;;;14.15;41.97559;966.5719;;;;
2019/04/21 01:30:43;;;;;;;14.9;8.6;;;;;;;14.15;41.82227;966.6111;;;;
2019/04/21 01:33:08;;;;;;;15.2;9.1;;;;;;;14.09;41.68555;966.6442;;;;
2019/04/21 01:35:33;;;;;;;13;8.6;;;;;;;14.11;41.94824;966.5787;;;;
2019/04/21 01:37:58;;;;;;;16.4;8.8;;;;;;;14.04;42.08398;966.6135;;;;
2019/04/21 01:40:24;;;;;;;13.5;8.6;;;;;;;14;42.25684;966.5549;;;;
2019/04/21 01:42:49;;;;;;;15.3;8.6;;;;;;;13.94;42.12109;966.5619;;;;
2019/04/21 01:45:14;;;;;;;15.9;8.6;;;;;;;13.75;42.42188;966.4994;;;;
2019/04/21 01:47:39;;;;;;;16.1;8.7;;;;;;;13.74;42.36133;966.5022;;;;
2019/04/21 01:50:04;;;;;;;15.3;8.8;;;;;;;13.58;42.62891;966.4707;;;;
2019/04/21 01:52:29;;;;;;;16.3;9.2;;;;;;;13.68;42.52148;966.4777;;;;
2019/04/21 01:54:58;;;;;;;16.1;8.6;;;;;;;13.71;42.58301;966.5075;;;;
2019/04/21 01:59:45;;;;;;;13.6;8.6;;;;;;;13.72;42.63184;966.5441;;;;
2019/04/21 02:02:10;;;;;;;13.5;8.8;;;;;;;13.64;42.80078;966.546;;;;
2019/04/21 02:04:35;;;;;;;14.8;8.9;;;;;;;13.62;42.97461;966.5372;;;;
2019/04/21 02:07:00;;;;;;;15.9;9;;;;;;;13.48;43.31543;966.5131;;;;
2019/04/21 02:09:25;;;;;;;14.1;8.6;;;;;;;13.49;43.38867;966.4503;;;;
2019/04/21 02:11:50;;;;;;;13.6;8.8;;;;;;;13.49;43.37598;966.4727;;;;
2019/04/21 02:14:16;;;;;;;15.3;9.3;;;;;;;13.52;43.47266;966.4072;;;;
2019/04/21 02:16:43;;;;;;;13.8;8.7;;;;;;;13.5;43.35254;966.415;;;;
2019/04/21 02:19:10;;;;;;;14.1;8.6;;;;;;;13.42;43.5459;966.464;;;;
2019/04/21 02:21:35;;;;;;;12.4;8.6;;;;;;;13.22;44.26855;966.4299;;;;
2019/04/21 02:24:01;;;;;;;15.5;9.3;;;;;;;13.14;44.62695;966.4565;;;;
2019/04/21 02:26:26;;;;;;;14.4;9;;;;;;;12.99;44.97559;966.3842;;;;
2019/04/21 02:28:53;;;;;;;17.5;9;;;;;;;13.13;44.59082;966.3887;;;;
2019/04/21 02:31:18;;;;;;;15.7;8.7;;;;;;;13.15;44.26074;966.3767;;;;
2019/04/21 02:33:44;;;;;;;12.7;8.8;;;;;;;13.19;44.10059;966.3176;;;;
2019/04/21 02:36:10;;;;;;;15.8;9;;;;;;;13.09;44.37402;966.2737;;;;
2019/04/21 02:38:35;;;;;;;14.9;8.9;;;;;;;13.15;44.46191;966.2683;;;;
2019/04/21 02:41:00;;;;;;;14.8;8.7;;;;;;;13.14;44.6377;966.2921;;;;
2019/04/21 02:43:26;;;;;;;17.1;9.2;;;;;;;13.04;45.28711;966.1615;;;;
2019/04/21 02:45:51;;;;;;;16.2;9;;;;;;;12.88;45.51855;966.1806;;;;
2019/04/21 02:48:16;;;;;;;19.5;9.5;;;;;;;12.77;45.84961;966.1603;;;;
2019/04/21 02:50:41;;;;;;;15;10.3;;;;;;;12.71;46.31348;966.1581;;;;
2019/04/21 02:53:06;;;;;;;15.6;10.2;;;;;;;12.73;46.26855;966.0637;;;;
2019/04/21 02:55:32;;;;;;;16.1;10.4;;;;;;;12.68;46.39258;966.0721;;;;
2019/04/21 02:58:01;;;;;;;19.5;10;;;;;;;12.7;46.19531;966.0641;;;;
2019/04/21 03:01:30;;;;;;;17.2;9.8;;;;;;;12.7;45.7002;966.0471;;;;
2019/04/21 03:02:59;;;;;;;15.3;10.3;;;;;;;12.78;45.64941;966.0336;;;;
2019/04/21 03:07:44;;;;;;;17.4;9.6;;;;;;;12.54;46.91895;966.0189;;;;
2019/04/21 03:10:09;;;;;;;17;9.5;;;;;;;12.35;47.41602;966.0095;;;;
2019/04/21 03:12:34;;;;;;;17.8;9;;;;;;;12.35;47.06348;965.9127;;;;
2019/04/21 03:15:00;;;;;;;19;9.5;;;;;;;12.46;46.73438;965.8942;;;;
2019/04/21 03:17:24;;;;;;;15.8;9.5;;;;;;;12.49;46.7959;965.8588;;;;
2019/04/21 03:19:51;;;;;;;16.4;9.4;;;;;;;12.53;47.01367;965.8808;;;;
2019/04/21 03:22:16;;;;;;;17;9.3;;;;;;;12.5;47.1748;965.7645;;;;
2019/04/21 03:24:41;;;;;;;17.6;8.8;;;;;;;12.51;46.89258;965.7463;;;;
2019/04/21 03:27:07;;;;;;;14.6;9;;;;;;;12.48;47.1123;965.7255;;;;
2019/04/21 03:29:32;;;;;;;14.1;9;;;;;;;12.46;47.45215;965.7336;;;;
2019/04/21 03:31:57;;;;;;;16.5;8.8;;;;;;;12.38;48.00781;965.6255;;;;
2019/04/21 03:34:22;;;;;;;14.4;8.7;;;;;;;12.33;48.26074;965.6217;;;;
2019/04/21 03:36:47;;;;;;;17;9.3;;;;;;;12.12;48.56836;965.5666;;;;
2019/04/21 03:39:12;;;;;;;13.6;9.7;;;;;;;11.89;49.50586;965.515;;;;
2019/04/21 03:41:37;;;;;;;18.9;10.2;;;;;;;11.79;49.3418;965.524;;;;
2019/04/21 03:44:02;;;;;;;13.8;9.8;;;;;;;11.79;49.16602;965.532;;;;
2019/04/21 03:46:28;;;;;;;15.1;9.5;;;;;;;11.93;48.58203;965.5214;;;;
2019/04/21 03:48:53;;;;;;;17.6;9.7;;;;;;;11.98;48.55273;965.5772;;;;
2019/04/21 03:51:18;;;;;;;15.3;9.1;;;;;;;12.05;48.32422;965.5391;;;;
2019/04/21 03:53:45;;;;;;;15.7;9.9;;;;;;;12.12;48.42676;965.5535;;;;
2019/04/21 03:56:10;;;;;;;17.8;10;;;;;;;12.16;49.06543;965.5468;;;;
2019/04/21 03:58:35;;;;;;;15.9;9.8;;;;;;;12.18;49.50391;965.5687;;;;
2019/04/21 04:06:57;;;;;;;14.4;9.8;;;;;;;12.11;49.26074;965.5117;;;;
2019/04/21 04:08:35;;;;;;;17.8;10.7;;;;;;;11.79;50.31738;965.5541;;;;
2019/04/21 04:10:52;;;;;;;15.1;10.8;;;;;;;11.65;50.125;965.5698;;;;
2019/04/21 04:13:17;;;;;;;19.1;11;;;;;;;11.45;50.85352;965.5087;;;;
2019/04/21 04:15:42;;;;;;;16.3;10.2;;;;;;;11.58;50.38574;965.5908;;;;
2019/04/21 04:18:07;;;;;;;16.6;9.9;;;;;;;11.52;50.91992;965.4615;;;;
2019/04/21 04:20:32;;;;;;;14.5;10;;;;;;;11.47;50.97266;965.5453;;;;
2019/04/21 04:22:59;;;;;;;14.4;10;;;;;;;11.38;51.99707;965.5687;;;;
2019/04/21 04:25:24;;;;;;;16;9.9;;;;;;;11.45;51.42871;965.5386;;;;
2019/04/21 04:27:50;;;;;;;16.2;9.7;;;;;;;11.53;50.99121;965.5947;;;;
2019/04/21 04:30:16;;;;;;;13.2;9.8;;;;;;;11.61;50.69531;965.5985;;;;
2019/04/21 04:32:41;;;;;;;16.3;9.9;;;;;;;11.67;50.53711;965.5934;;;;
2019/04/21 04:35:06;;;;;;;19.6;10.6;;;;;;;11.74;50.51074;965.6287;;;;
2019/04/21 04:37:32;;;;;;;14.9;10.6;;;;;;;11.59;51.26953;965.5974;;;;
2019/04/21 04:40:04;;;;;;;15.2;11.3;;;;;;;11.48;51.46777;965.6077;;;;
2019/04/21 04:42:31;;;;;;;17;11.5;;;;;;;11.34;51.69824;965.6964;;;;
2019/04/21 04:44:50;;;;;;;18.9;12.2;;;;;;;11.47;51.04297;965.6534;;;;
2019/04/21 04:47:15;;;;;;;18.3;11.7;;;;;;;11.59;50.42285;965.5673;;;;
2019/04/21 04:49:40;;;;;;;20.5;12;;;;;;;11.66;49.76172;965.5854;;;;
2019/04/21 04:52:05;;;;;;;20.5;11.9;;;;;;;11.8;49.75391;965.5698;;;;
2019/04/21 04:54:30;;;;;;;18.2;12.4;;;;;;;11.85;49.94824;965.5399;;;;
2019/04/21 04:56:55;;;;;;;17.9;13;;;;;;;11.92;49.66309;965.5056;;;;
2019/04/21 04:59:21;;;;;;;20.7;12.8;;;;;;;11.93;49.45215;965.4989;;;;
2019/04/21 05:01:46;;;;;;;20.2;12.8;;;;;;;12;49.21289;965.452;;;;
2019/04/21 05:04:11;;;;;;;18.3;13;;;;;;;12.03;49.18066;965.4558;;;;
2019/04/21 05:06:36;;;;;;;22.6;13.6;;;;;;;12.04;49.44043;965.4897;;;;
2019/04/21 05:09:02;;;;;;;19.4;13.4;;;;;;;12.08;49.65625;965.4217;;;;
2019/04/21 05:11:27;;;;;;;22;13.6;;;;;;;12.13;49.62695;965.4344;;;;
2019/04/21 05:13:53;;;;;;;24.9;13.4;;;;;;;12.16;49.44141;965.4384;;;;
2019/04/21 05:16:18;;;;;;;24.1;13.3;;;;;;;12.15;49.32324;965.488;;;;
2019/04/21 05:18:43;;;;;;;20.3;13.2;;;;;;;12.19;49.03418;965.5323;;;;
2019/04/21 05:21:09;;;;;;;21.8;13.5;;;;;;;12.09;48.74121;965.5416;;;;
2019/04/21 05:23:34;;;;;;;22.6;14.3;;;;;;;12.18;49.13867;965.6914;;;;
2019/04/21 05:26:00;;;;;;;21.4;13.4;;;;;;;12.24;49.0166;965.6494;;;;
2019/04/21 05:28:24;;;;;;;19.7;13.5;;;;;;;12.33;48.55566;965.6125;;;;
2019/04/21 05:31:09;;;;;;;22.7;14;;;;;;;12.43;48.1084;965.6199;;;;
2019/04/21 05:33:21;;;;;;;21.3;13.5;;;;;;;12.49;47.1377;965.6694;;;;
2019/04/21 05:35:53;;;;;;;22.4;14.3;;;;;;;12.47;47.00684;965.6301;;;;
2019/04/21 05:40:29;;;;;;;23.3;14;;;;;;;12.45;46.02539;965.5481;;;;
2019/04/21 05:42:55;;;;;;;23.3;13.6;;;;;;;12.51;46.04492;965.5765;;;;
2019/04/21 05:45:24;;;;;;;20.2;14.1;;;;;;;12.63;45.75098;965.4807;;;;
2019/04/21 05:48:07;;;;;;;18.8;13.6;;;;;;;12.43;44.69434;965.4815;;;;
2019/04/21 05:50:16;;;;;;;19.6;14.4;;;;;;;12.31;44.19922;965.507;;;;
2019/04/21 05:52:44;;;;;;;20.5;14.2;;;;;;;12.4;43.65527;965.4817;;;;
2019/04/21 05:55:09;;;;;;;20.7;14.3;;;;;;;12.44;43.0127;965.492;;;;
2019/04/21 05:57:37;;;;;;;21.5;14;;;;;;;12.4;43.83203;965.4739;;;;
2019/04/21 06:00:02;;;;;;;21;13.4;;;;;;;12.58;43.36719;965.4729;;;;
2019/04/21 06:02:27;;;;;;;17.2;13.4;;;;;;;12.8;42.71777;965.4288;;;;
2019/04/21 06:04:53;;;;;;;18.6;13;;;;;;;13.01;41.54785;965.4913;;;;
2019/04/21 06:07:18;;;;;;;18.1;13.4;;;;;;;13.18;40.50293;965.4562;;;;
2019/04/21 06:09:43;;;;;;;19.6;13.5;;;;;;;13.23;39.89453;965.4821;;;;
2019/04/21 06:12:08;;;;;;;20.3;12.8;;;;;;;13.44;38.36816;965.4191;;;;
2019/04/21 06:14:33;;;;;;;21.5;12.9;;;;;;;13.42;38.54297;965.3917;;;;
2019/04/21 06:18:26;;;;;;;17.5;12.3;;;;;;;13.65;38.8584;965.3582;;;;
2019/04/21 06:20:51;;;;;;;17.5;11.7;;;;;;;13.66;38.30469;965.3137;;;;
2019/04/21 06:23:16;;;;;;;18.8;11.9;;;;;;;13.45;38.10938;965.3939;;;;
2019/04/21 06:25:41;;;;;;;15.5;11.5;;;;;;;13.8;38.1748;965.2834;;;;
2019/04/21 06:28:06;;;;;;;16.1;11.2;;;;;;;13.76;38.12402;965.2864;;;;
2019/04/21 06:30:31;;;;;;;17.9;12;;;;;;;14.11;37.51758;965.2866;;;;
2019/04/21 06:32:56;;;;;;;15.9;11.5;;;;;;;14.33;37.14551;965.2944;;;;
2019/04/21 06:35:30;;;;;;;18;11.2;;;;;;;14.28;36.57422;965.3002;;;;
2019/04/21 06:37:49;;;;;;;15.8;10.6;;;;;;;14.18;36.57813;965.3264;;;;
2019/04/21 06:40:16;;;;;;;19.9;11;;;;;;;14.47;36.79102;965.2562;;;;
2019/04/21 06:42:41;;;;;;;18.5;10.7;;;;;;;14.71;36.25586;965.3251;;;;
2019/04/21 06:45:14;;;;;;;15.8;10.1;;;;;;;14.91;36.41406;965.2175;;;;
2019/04/21 06:47:47;;;;;;;14.8;10.5;;;;;;;15.13;36.4082;965.2717;;;;
2019/04/21 06:50:21;;;;;;;15.8;9.8;;;;;;;15.14;35.26074;965.2219;;;;
2019/04/21 06:52:46;;;;;;;14.4;9.5;;;;;;;15.39;34.90137;965.2584;;;;
2019/04/21 06:55:11;;;;;;;13.1;8.9;;;;;;;15.6;34.17188;965.2391;;;;
2019/04/21 06:57:36;;;;;;;16.4;9.3;;;;;;;15.48;34.28027;965.2898;;;;
2019/04/21 07:00:01;;;;;;;14.9;9.2;;;;;;;15.7;34.82031;965.3215;;;;
2019/04/21 07:02:26;;;;;;;12.7;8.4;;;;;;;16.06;33.28125;965.3267;;;;
2019/04/21 07:04:51;;;;;;;13.3;8.9;;;;;;;16.37;33.0918;965.3231;;;;
2019/04/21 07:07:16;;;;;;;14.7;8.1;;;;;;;16.26;33.22559;965.2177;;;;
2019/04/21 07:09:59;;;;;;;11.6;8.2;;;;;;;16.48;33.06348;965.2816;;;;
2019/04/21 07:12:44;;;;;;;12.1;8;;;;;;;16.83;33.18555;965.1783;;;;
2019/04/21 07:15:12;;;;;;;14;8;;;;;;;16.95;33.13477;965.1638;;;;
2019/04/21 07:17:38;;;;;;;16.6;8.5;;;;;;;17.07;32.58496;965.2001;;;;
2019/04/21 07:20:26;;;;;;;15;8.5;;;;;;;17.32;32.91309;965.147;;;;
2019/04/21 07:22:51;;;;;;;12.3;8.3;;;;;;;17.1;32.55176;965.155;;;;
2019/04/21 07:25:16;;;;;;;14.6;8.5;;;;;;;17.47;32.35254;965.1525;;;;
2019/04/21 07:27:41;;;;;;;11.9;8.2;;;;;;;17.48;32.16211;965.0628;;;;
2019/04/21 07:30:06;;;;;;;11.8;8.2;;;;;;;17.69;31.80859;965.0524;;;;
2019/04/21 07:32:31;;;;;;;11.7;8.3;;;;;;;17.91;32.29004;964.9938;;;;
2019/04/21 07:34:57;;;;;;;13.5;7.7;;;;;;;17.92;31.63477;965.0239;;;;
2019/04/21 07:37:22;;;;;;;13.3;8;;;;;;;18.05;32.01367;965.0095;;;;
2019/04/21 07:39:50;;;;;;;12.4;7.6;;;;;;;18.01;32.54785;964.9966;;;;
2019/04/21 07:42:15;;;;;;;11.3;7.9;;;;;;;18.32;32.11719;964.9863;;;;
2019/04/21 07:44:40;;;;;;;11.2;7.7;;;;;;;18.49;31.36621;964.9905;;;;
2019/04/21 07:47:10;;;;;;;13.1;7;;;;;;;18.65;31.13867;964.9639;;;;
2019/04/21 07:49:47;;;;;;;13.7;7.2;;;;;;;18.78;31.85254;964.9412;;;;
2019/04/21 07:52:11;;;;;;;12.1;7.4;;;;;;;18.81;31.44824;964.9258;;;;
2019/04/21 07:54:21;;;;;;;12.2;8;;;;;;;18.82;31.26953;964.9072;;;;
2019/04/21 07:56:46;;;;;;;13;7.6;;;;;;;18.68;31.04492;964.988;;;;
2019/04/21 07:59:11;;;;;;;12.4;7.2;;;;;;;18.77;32.14941;964.9445;;;;
2019/04/21 08:01:36;;;;;;;11.1;6.6;;;;;;;18.97;32.61914;965.0026;;;;
2019/04/21 08:04:01;;;;;;;13.3;7.4;;;;;;;19.24;31.66992;964.923;;;;
2019/04/21 08:06:27;;;;;;;11.9;6.8;;;;;;;19.55;31.07031;964.8613;;;;
2019/04/21 08:08:53;;;;;;;12.1;7.5;;;;;;;19.58;31.6582;964.9225;;;;
2019/04/21 08:11:19;;;;;;;9.8;6.9;;;;;;;19.59;30.35547;964.8045;;;;
2019/04/21 08:13:44;;;;;;;11.3;6.6;;;;;;;19.48;31.08887;964.8282;;;;
2019/04/21 08:16:09;;;;;;;10.3;6.2;;;;;;;19.66;30.50391;964.7584;;;;
2019/04/21 08:18:35;;;;;;;10.2;6.4;;;;;;;19.92;30.3418;964.7441;;;;
2019/04/21 08:21:04;;;;;;;10.9;6.3;;;;;;;20.03;29.83398;964.7932;;;;
2019/04/21 08:23:37;;;;;;;9.9;5.7;;;;;;;20.14;29.00293;964.7374;;;;
2019/04/21 08:26:03;;;;;;;9.8;5.6;;;;;;;20.34;28.94434;964.7662;;;;
2019/04/21 08:28:28;;;;;;;9.1;5.4;;;;;;;20.3;29.16895;964.7322;;;;
2019/04/21 08:30:58;;;;;;;8;5.4;;;;;;;20.51;28.72754;964.7609;;;;
2019/04/21 08:33:23;;;;;;;12.8;5.1;;;;;;;20.43;28.32617;964.6653;;;;
2019/04/21 08:35:48;;;;;;;8.7;5.1;;;;;;;20.71;27.54102;964.7059;;;;
2019/04/21 08:38:13;;;;;;;9.5;4.9;;;;;;;20.91;26.78516;964.7245;;;;
2019/04/21 08:40:39;;;;;;;10.8;4.9;;;;;;;20.79;26.64648;964.6749;;;;
2019/04/21 08:43:11;;;;;;;8.9;5;;;;;;;21.05;26.16992;964.6422;;;;
2019/04/21 08:45:37;;;;;;;10.1;5.5;;;;;;;21.11;26.60547;964.5803;;;;
2019/04/21 08:48:03;;;;;;;7.5;4.7;;;;;;;20.98;26.59766;964.5416;;;;
2019/04/21 08:50:30;;;;;;;9.1;5;;;;;;;21.11;26.08887;964.5934;;;;
2019/04/21 08:52:55;;;;;;;8.2;4.7;;;;;;;21.34;25.52637;964.5276;;;;
2019/04/21 08:55:29;;;;;;;10.1;5.1;;;;;;;21.48;25.35449;964.5096;;;;
2019/04/21 08:58:00;;;;;;;8.6;5;;;;;;;21.33;25.38184;964.4458;;;;
2019/04/21 09:00:17;;;;;;;8.5;5;;;;;;;21.45;25.66504;964.4497;;;;
2019/04/21 09:03:31;;;;;;;10.8;5.1;;;;;;;21.16;25.41992;964.4724;;;;
2019/04/21 09:05:23;;;;;;;7.8;4.5;;;;;;;21.38;24.48242;964.4567;;;;
2019/04/21 09:07:48;;;;;;;7.7;4.8;;;;;;;21.68;24.88477;964.4041;;;;
2019/04/21 09:10:13;;;;;;;9.7;4.9;;;;;;;21.94;25.32031;964.3823;;;;
2019/04/21 09:12:38;;;;;;;13.5;5;;;;;;;21.96;24.69629;964.383;;;;
2019/04/21 09:15:03;;;;;;;7.5;4.8;;;;;;;21.9;24.42773;964.3259;;;;
2019/04/21 09:17:28;;;;;;;6.1;4.4;;;;;;;22.11;24.64453;964.2569;;;;
2019/04/21 09:19:53;;;;;;;9.8;4.6;;;;;;;22.27;24.31543;964.3943;;;;
2019/04/21 09:22:20;;;;;;;9.2;4.6;;;;;;;22.17;23.50391;964.3058;;;;
2019/04/21 09:24:45;;;;;;;8.6;4.6;;;;;;;22.27;24.31543;964.324;;;;
2019/04/21 09:27:12;;;;;;;11.9;4.6;;;;;;;22.36;24.23633;964.2906;;;;
2019/04/21 09:29:37;;;;;;;8.2;4.4;;;;;;;22.73;24.82324;964.2352;;;;
2019/04/21 09:32:04;;;;;;;12.9;4.4;;;;;;;22.68;24.13281;964.2469;;;;
2019/04/21 09:34:29;;;;;;;8.5;4.1;;;;;;;22.71;24.05078;964.2081;;;;
2019/04/21 09:36:54;;;;;;;7.8;4;;;;;;;22.81;23.08008;964.2089;;;;
2019/04/21 09:39:20;;;;;;;6.4;4;;;;;;;22.8;22.56055;964.0833;;;;
2019/04/21 09:41:45;;;;;;;7.1;3.8;;;;;;;22.78;22.53613;964.1054;;;;
2019/04/21 09:44:10;;;;;;;7.2;3.9;;;;;;;23.3;23.28613;964.0583;;;;
2019/04/21 09:46:35;;;;;;;7.1;4.1;;;;;;;23.21;22.57031;964.0524;;;;
2019/04/21 09:49:00;;;;;;;8.6;4;;;;;;;23.25;21.58203;963.9774;;;;
2019/04/21 09:51:25;;;;;;;7.4;4;;;;;;;23.04;22.30762;963.989;;;;
2019/04/21 09:53:50;;;;;;;7.8;3.7;;;;;;;23.44;21.58008;964.0224;;;;
2019/04/21 09:56:16;;;;;;;7.8;4.6;;;;;;;23.57;21.34473;963.976;;;;
2019/04/21 09:58:41;;;;;;;6;4;;;;;;;23.17;21.54199;963.9375;;;;
2019/04/21 10:01:06;;;;;;;6.8;4.4;;;;;;;23.43;20.10645;963.8358;;;;
2019/04/21 10:03:35;;;;;;;5.2;3.7;;;;;;;23.63;19.77832;963.7762;;;;
2019/04/21 10:06:02;;;;;;;8.2;4.3;;;;;;;23.68;20.2627;963.7961;;;;
2019/04/21 10:08:27;;;;;;;7.5;4.2;;;;;;;23.33;19.4873;963.8219;;;;
2019/04/21 10:10:54;;;;;;;7.8;4.2;;;;;;;23.5;19.34961;963.8053;;;;
2019/04/21 10:13:19;;;;;;;8;4.1;;;;;;;23.66;19.39258;963.7199;;;;
2019/04/21 10:15:50;;;;;;;6;4;;;;;;;23.68;18.95898;963.7296;;;;
2019/04/21 10:18:14;;;;;;;6.3;4;;;;;;;23.65;19.03027;963.7006;;;;
2019/04/21 10:20:41;;;;;;;8.9;3.8;;;;;;;23.84;19.49707;963.7427;;;;
2019/04/21 10:23:25;;;;;;;10.2;4.2;;;;;;;23.77;20.2793;963.7012;;;;
2019/04/21 10:25:50;;;;;;;7.2;4.1;;;;;;;23.68;19.55078;963.6404;;;;
2019/04/21 10:28:15;;;;;;;10.3;4.2;;;;;;;24.02;19.62598;963.5719;;;;
2019/04/21 10:30:40;;;;;;;8.2;3.9;;;;;;;24.13;19.70313;963.561;;;;
2019/04/21 10:33:05;;;;;;;6.3;3.9;;;;;;;24.04;20.03809;963.5229;;;;
2019/04/21 10:35:31;;;;;;;11.2;4.1;;;;;;;23.94;20.10547;963.4849;;;;
2019/04/21 10:37:56;;;;;;;8.1;4.2;;;;;;;24.12;19.98047;963.5322;;;;
2019/04/21 10:40:22;;;;;;;6.6;4.5;;;;;;;24.06;19.72363;963.5463;;;;
2019/04/21 10:42:47;;;;;;;7;4.1;;;;;;;24.3;20.36328;963.5266;;;;
2019/04/21 10:45:12;;;;;;;7.3;4.4;;;;;;;24.28;19.86719;963.456;;;;
2019/04/21 10:47:37;;;;;;;9.5;4.3;;;;;;;24.58;19.65039;963.4219;;;;
2019/04/21 10:50:02;;;;;;;6.6;4.1;;;;;;;24.63;19.64063;963.3922;;;;
2019/04/21 10:54:52;;;;;;;9.6;5.1;;;;;;;24.38;18.95215;963.325;;;;
2019/04/21 10:57:23;;;;;;;9.1;4.5;;;;;;;24.4;19.75098;963.3212;;;;
2019/04/21 10:59:44;;;;;;;6.4;3.9;;;;;;;24.35;18.83008;963.2123;;;;
2019/04/21 11:02:14;;;;;;;5.3;4;;;;;;;24.33;19.2168;963.265;;;;
2019/04/21 11:04:34;;;;;;;6.4;3.8;;;;;;;24.31;18.35645;963.3369;;;;
2019/04/21 11:07:03;;;;;;;8.3;4.1;;;;;;;24.52;19.4541;963.2628;;;;
2019/04/21 11:09:25;;;;;;;6.9;3.8;;;;;;;24.64;18.68555;963.1492;;;;
2019/04/21 11:11:50;;;;;;;6.5;3.8;;;;;;;24.51;19.90137;963.2209;;;;
2019/04/21 11:14:15;;;;;;;6;3.8;;;;;;;24.59;17.9082;963.1614;;;;
2019/04/21 11:16:40;;;;;;;6.5;4;;;;;;;24.64;18.17676;963.1947;;;;
2019/04/21 11:19:05;;;;;;;5.1;3.8;;;;;;;24.52;18.29297;963.103;;;;
2019/04/21 11:21:30;;;;;;;7.5;4.6;;;;;;;24.93;18.70898;963.088;;;;
2019/04/21 11:23:57;;;;;;;5.9;4.4;;;;;;;25.09;18.34082;963.0659;;;;
2019/04/21 11:26:22;;;;;;;8.6;3.9;;;;;;;24.86;18.53711;963.0087;;;;
2019/04/21 11:28:47;;;;;;;11.1;3.7;;;;;;;24.69;18.23926;963.0226;;;;
2019/04/21 11:31:13;;;;;;;5.9;3.8;;;;;;;24.85;17.24121;962.9933;;;;
2019/04/21 11:33:38;;;;;;;5.1;3.7;;;;;;;24.58;17.66602;962.9504;;;;
2019/04/21 11:36:03;;;;;;;5.6;4.3;;;;;;;24.46;17.95117;962.9613;;;;
2019/04/21 11:38:39;;;;;;;7.8;3.9;;;;;;;24.52;18.31738;962.875;;;;
2019/04/21 11:40:53;;;;;;;6.5;4.4;;;;;;;24.56;17.79883;962.986;;;;
2019/04/21 11:43:31;;;;;;;7.1;4.2;;;;;;;24.64;17.80176;962.9495;;;;
2019/04/21 11:46:09;;;;;;;6.1;4;;;;;;;24.8;17.72363;962.8362;;;;
2019/04/21 11:48:34;;;;;;;8.7;4.6;;;;;;;24.6;18.06641;962.8745;;;;
2019/04/21 11:50:59;;;;;;;8.7;4.2;;;;;;;24.82;17.7002;962.802;;;;
2019/04/21 11:53:25;;;;;;;8.8;4.5;;;;;;;24.78;17.02051;962.8187;;;;
2019/04/21 11:56:12;;;;;;;7.7;4.1;;;;;;;25.12;17.71191;962.8016;;;;
2019/04/21 11:58:53;;;;;;;5.3;3.6;;;;;;;25;16.41113;962.7274;;;;
2019/04/21 12:01:18;;;;;;;7.1;3.8;;;;;;;24.85;16.33301;962.687;;;;
2019/04/21 12:03:44;;;;;;;7.6;4.1;;;;;;;24.77;16.40234;962.7597;;;;
2019/04/21 12:06:09;;;;;;;5.7;3.7;;;;;;;24.91;16.55273;962.7317;;;;
2019/04/21 12:08:36;;;;;;;6.7;4.2;;;;;;;24.88;16.72168;962.7866;;;;
2019/04/21 12:11:01;;;;;;;6.1;4.2;;;;;;;25.08;17.08008;962.7095;;;;
2019/04/21 12:13:26;;;;;;;6.8;4.5;;;;;;;25.24;17.12207;962.6055;;;;
2019/04/21 12:15:51;;;;;;;6.4;4.2;;;;;;;24.86;16.93848;962.6947;;;;
2019/04/21 12:19:40;;;;;;;7.3;3.7;;;;;;;24.9;15.53516;962.6097;;;;
2019/04/21 12:22:05;;;;;;;6.1;3.8;;;;;;;25.23;16.08008;962.731;;;;
2019/04/21 12:24:32;;;;;;;5.7;4.2;;;;;;;24.93;15.47559;962.5759;;;;
2019/04/21 12:26:56;;;;;;;5.6;3.8;;;;;;;25.31;15.96191;962.4676;;;;
2019/04/21 12:29:21;;;;;;;4.7;3.6;;;;;;;25.47;15.80957;962.5022;;;;
2019/04/21 12:35:20;;;;;;;5;3.6;;;;;;;25.55;15.4375;962.4333;;;;
2019/04/21 12:37:45;;;;;;;5.3;3.4;;;;;;;25.18;15;962.3572;;;;
2019/04/21 12:40:11;;;;;;;6.3;3.8;;;;;;;25.26;15.3418;962.351;;;;
2019/04/21 12:42:38;;;;;;;5;3.4;;;;;;;25.33;16.03516;962.3652;;;;
2019/04/21 12:45:03;;;;;;;9.2;3.9;;;;;;;25.45;15.60254;962.2888;;;;
2019/04/21 12:47:28;;;;;;;6.8;4;;;;;;;25.42;15.23828;962.2651;;;;
2019/04/21 12:50:08;;;;;;;6.4;4;;;;;;;25.46;16.18555;962.1744;;;;
2019/04/21 12:52:33;;;;;;;4.7;3.5;;;;;;;25.47;14.79102;962.165;;;;
2019/04/21 12:54:59;;;;;;;6.5;3.7;;;;;;;25.51;15.70215;962.0931;;;;
2019/04/21 12:57:24;;;;;;;5.4;3.9;;;;;;;25.26;15.52344;962.1205;;;;
2019/04/21 12:59:50;;;;;;;7.5;3.8;;;;;;;25.24;15.49902;962.0419;;;;
2019/04/21 13:02:15;;;;;;;5.4;3.3;;;;;;;25.48;14.64648;961.9615;;;;
2019/04/21 13:04:42;;;;;;;5.5;3.4;;;;;;;25.51;14.98633;961.9732;;;;
2019/04/21 13:07:07;;;;;;;4.8;3.5;;;;;;;25.49;14.87695;962.0092;;;;
2019/04/21 13:09:33;;;;;;;6.7;3.6;;;;;;;25.33;15.47754;961.9881;;;;
2019/04/21 13:11:58;;;;;;;5.4;4;;;;;;;25.42;16.01367;961.9758;;;;
2019/04/21 13:14:23;;;;;;;6.6;3.4;;;;;;;25.22;14.91602;961.9219;;;;
2019/04/21 13:16:48;;;;;;;5.3;3.7;;;;;;;25.37;15.58789;961.863;;;;
2019/04/21 13:19:13;;;;;;;4.6;3.7;;;;;;;25.59;15.28027;961.8603;;;;
2019/04/21 13:21:39;;;;;;;6.2;3.4;;;;;;;25.25;15.09961;961.808;;;;
2019/04/21 13:24:04;;;;;;;8.5;3.5;;;;;;;25.3;15.79199;961.8222;;;;
2019/04/21 13:26:29;;;;;;;4.9;3.8;;;;;;;25.24;15.65625;961.6954;;;;
2019/04/21 13:28:54;;;;;;;6.9;3.7;;;;;;;25.49;16.11328;961.7637;;;;
2019/04/21 13:31:19;;;;;;;5.1;3.9;;;;;;;25.36;15.22363;961.697;;;;
2019/04/21 13:33:44;;;;;;;7.6;3.8;;;;;;;25.28;15.7666;961.7073;;;;
2019/04/21 13:36:09;;;;;;;5.5;3.7;;;;;;;25.2;15.25488;961.6855;;;;
2019/04/21 13:38:35;;;;;;;6.1;3.9;;;;;;;25.23;15.24414;961.6136;;;;
2019/04/21 13:41:07;;;;;;;6;3.7;;;;;;;25.35;15.47852;961.5027;;;;
2019/04/21 13:43:25;;;;;;;7.9;3.7;;;;;;;25.42;15.17773;961.572;;;;
2019/04/21 13:45:50;;;;;;;5.8;3.6;;;;;;;25.11;14.69434;961.5567;;;;
2019/04/21 13:48:15;;;;;;;6.8;3.7;;;;;;;25.39;15.17676;961.4938;;;;
2019/04/21 13:50:40;;;;;;;6.6;3.5;;;;;;;25.5;15.4834;961.4588;;;;
2019/04/21 13:53:05;;;;;;;4.7;3.6;;;;;;;25.3;15.37988;961.3917;;;;
2019/04/21 13:55:31;;;;;;;6.9;3.7;;;;;;;25.04;14.7168;961.4359;;;;
2019/04/21 13:57:56;;;;;;;6.3;3.6;;;;;;;25.16;14.70801;961.3269;;;;
2019/04/21 14:00:21;;;;;;;6.4;3.8;;;;;;;25.22;14.74707;961.2861;;;;
2019/04/21 14:02:46;;;;;;;4.8;4;;;;;;;25.18;14.43066;961.2512;;;;
2019/04/21 14:05:11;;;;;;;4.4;3.7;;;;;;;25.37;14.67871;961.2288;;;;
2019/04/21 14:07:36;;;;;;;4.9;3.5;;;;;;;25.23;15.11035;961.2706;;;;
2019/04/21 14:10:01;;;;;;;6.1;3.4;;;;;;;25.2;15.21875;961.1791;;;;
2019/04/21 14:12:27;;;;;;;5.1;3.6;;;;;;;24.96;14.77441;961.1797;;;;
2019/04/21 14:14:52;;;;;;;6.7;3.3;;;;;;;25.18;14.6123;961.1502;;;;
2019/04/21 14:17:17;;;;;;;5.3;3.4;;;;;;;24.95;15.29492;961.1415;;;;
2019/04/21 14:19:42;;;;;;;6.1;3.6;;;;;;;25.07;14.81445;961.1528;;;;
2019/04/21 14:22:07;;;;;;;7.7;3.8;;;;;;;25.03;15.40723;961.0552;;;;
2019/04/21 14:24:32;;;;;;;4.6;3.2;;;;;;;25.08;14.91211;961.1052;;;;
2019/04/21 14:27:12;;;;;;;5.1;3.7;;;;;;;25.04;15.79492;961.0058;;;;
2019/04/21 14:29:38;;;;;;;5;3.5;;;;;;;25.18;16.52637;961.0114;;;;
2019/04/21 14:32:04;;;;;;;5.8;3.4;;;;;;;25.23;15.67969;960.9813;;;;
2019/04/21 14:34:29;;;;;;;5.3;3.5;;;;;;;25.03;15.16406;960.998;;;;